Terminal Aerodrome Forecast
Issued by NWS Blacksburg, VA

Home | Current Version | Previous Version | Text Only | Print | Product List | Glossary On
Versions: 1 2 3 4 5 6 7 8 9 10 11 12 13 14 15
000
FTUS41 KRNK 220910 AAB
TAFDAN
TAF AMD
KDAN 220910Z 2209/2306 00000KT 6SM BR OVC080
      TEMPO 2209/2211 2SM BR SCT030 OVC080
     FM221100 VRB03KT P6SM SCT080
     FM221500 32009G17KT P6SM SCT250
     FM222300 34006KT P6SM SKC=

USA.gov is the U.S. government's official web portal to all federal, state and local government web resources and services.